sensor_id;sensor_type;location;lat;lon;timestamp;P1;durP1;ratioP1;P2;durP2;ratioP2
3274;SDS011;1649;53.672;10.064;2023-02-07T00:01:29;29.05;;;18.10;;
3274;SDS011;1649;53.672;10.064;2023-02-07T00:03:55;28.70;;;16.70;;
3274;SDS011;1649;53.672;10.064;2023-02-07T00:06:23;29.88;;;17.95;;
3274;SDS011;1649;53.672;10.064;2023-02-07T00:08:52;27.08;;;16.10;;
3274;SDS011;1649;53.672;10.064;2023-02-07T00:11:18;28.92;;;16.30;;
3274;SDS011;1649;53.672;10.064;2023-02-07T00:13:46;27.17;;;15.68;;
3274;SDS011;1649;53.672;10.064;2023-02-07T00:16:13;27.70;;;15.80;;
3274;SDS011;1649;53.672;10.064;2023-02-07T00:18:39;30.20;;;16.70;;
3274;SDS011;1649;53.672;10.064;2023-02-07T00:21:05;27.40;;;15.90;;
3274;SDS011;1649;53.672;10.064;2023-02-07T00:23:33;29.90;;;15.75;;
3274;SDS011;1649;53.672;10.064;2023-02-07T00:26:00;25.10;;;15.30;;
3274;SDS011;1649;53.672;10.064;2023-02-07T00:28:26;26.15;;;16.38;;
3274;SDS011;1649;53.672;10.064;2023-02-07T00:31:12;26.70;;;15.33;;
3274;SDS011;1649;53.672;10.064;2023-02-07T00:33:43;26.58;;;15.95;;
3274;SDS011;1649;53.672;10.064;2023-02-07T00:36:11;29.08;;;16.40;;
3274;SDS011;1649;53.672;10.064;2023-02-07T00:38:39;25.02;;;14.30;;
3274;SDS011;1649;53.672;10.064;2023-02-07T00:41:05;22.43;;;14.23;;
3274;SDS011;1649;53.672;10.064;2023-02-07T00:43:31;26.48;;;15.10;;
3274;SDS011;1649;53.672;10.064;2023-02-07T00:45:57;24.97;;;14.93;;
3274;SDS011;1649;53.672;10.064;2023-02-07T00:48:23;26.33;;;14.43;;
3274;SDS011;1649;53.672;10.064;2023-02-07T00:50:50;30.67;;;16.13;;
3274;SDS011;1649;53.672;10.064;2023-02-07T00:53:15;24.70;;;14.50;;
3274;SDS011;1649;53.672;10.064;2023-02-07T00:55:40;20.23;;;13.60;;
3274;SDS011;1649;53.672;10.064;2023-02-07T00:58:06;23.47;;;13.53;;
3274;SDS011;1649;53.672;10.064;2023-02-07T01:00:31;25.17;;;14.20;;
3274;SDS011;1649;53.672;10.064;2023-02-07T01:02:57;30.00;;;14.80;;
3274;SDS011;1649;53.672;10.064;2023-02-07T01:05:22;26.50;;;13.80;;
3274;SDS011;1649;53.672;10.064;2023-02-07T01:07:48;23.23;;;14.80;;
3274;SDS011;1649;53.672;10.064;2023-02-07T01:10:13;26.27;;;15.80;;
3274;SDS011;1649;53.672;10.064;2023-02-07T01:12:39;22.13;;;14.87;;
3274;SDS011;1649;53.672;10.064;2023-02-07T01:15:05;25.73;;;13.50;;
3274;SDS011;1649;53.672;10.064;2023-02-07T01:17:31;22.13;;;14.05;;
3274;SDS011;1649;53.672;10.064;2023-02-07T01:19:57;23.77;;;13.95;;
3274;SDS011;1649;53.672;10.064;2023-02-07T01:22:24;22.95;;;13.93;;
3274;SDS011;1649;53.672;10.064;2023-02-07T01:24:53;26.35;;;15.15;;
3274;SDS011;1649;53.672;10.064;2023-02-07T01:27:19;25.08;;;14.55;;
3274;SDS011;1649;53.672;10.064;2023-02-07T01:29:48;25.67;;;15.05;;
3274;SDS011;1649;53.672;10.064;2023-02-07T01:32:15;24.55;;;14.23;;
3274;SDS011;1649;53.672;10.064;2023-02-07T01:34:41;23.90;;;15.02;;
3274;SDS011;1649;53.672;10.064;2023-02-07T01:37:06;23.17;;;14.53;;
3274;SDS011;1649;53.672;10.064;2023-02-07T01:39:32;25.87;;;14.50;;
3274;SDS011;1649;53.672;10.064;2023-02-07T01:41:57;29.10;;;14.50;;
3274;SDS011;1649;53.672;10.064;2023-02-07T01:46:49;29.27;;;14.80;;
3274;SDS011;1649;53.672;10.064;2023-02-07T01:49:16;24.67;;;14.98;;
3274;SDS011;1649;53.672;10.064;2023-02-07T01:51:45;26.63;;;15.77;;
3274;SDS011;1649;53.672;10.064;2023-02-07T01:54:15;28.90;;;15.43;;
3274;SDS011;1649;53.672;10.064;2023-02-07T01:56:43;25.45;;;15.00;;
3274;SDS011;1649;53.672;10.064;2023-02-07T01:59:12;25.02;;;15.20;;
3274;SDS011;1649;53.672;10.064;2023-02-07T02:01:39;24.83;;;13.90;;
3274;SDS011;1649;53.672;10.064;2023-02-07T02:04:05;28.20;;;16.27;;
3274;SDS011;1649;53.672;10.064;2023-02-07T02:06:31;30.07;;;14.80;;
3274;SDS011;1649;53.672;10.064;2023-02-07T02:08:59;26.05;;;14.20;;
3274;SDS011;1649;53.672;10.064;2023-02-07T02:14:43;22.75;;;14.13;;
3274;SDS011;1649;53.672;10.064;2023-02-07T02:17:24;21.27;;;13.73;;
3274;SDS011;1649;53.672;10.064;2023-02-07T02:23:19;30.63;;;14.70;;
3274;SDS011;1649;53.672;10.064;2023-02-07T02:28:51;23.40;;;13.43;;
3274;SDS011;1649;53.672;10.064;2023-02-07T02:31:41;26.40;;;12.63;;
3274;SDS011;1649;53.672;10.064;2023-02-07T02:34:33;22.67;;;14.20;;
3274;SDS011;1649;53.672;10.064;2023-02-07T02:40:03;25.98;;;13.95;;
3274;SDS011;1649;53.672;10.064;2023-02-07T02:45:35;20.48;;;12.52;;
3274;SDS011;1649;53.672;10.064;2023-02-07T02:48:09;18.70;;;12.38;;
3274;SDS011;1649;53.672;10.064;2023-02-07T02:50:36;22.20;;;12.45;;
3274;SDS011;1649;53.672;10.064;2023-02-07T02:53:02;23.42;;;13.93;;
3274;SDS011;1649;53.672;10.064;2023-02-07T02:55:33;21.90;;;13.63;;
3274;SDS011;1649;53.672;10.064;2023-02-07T03:01:04;19.20;;;12.85;;
3274;SDS011;1649;53.672;10.064;2023-02-07T03:06:40;22.33;;;13.02;;
3274;SDS011;1649;53.672;10.064;2023-02-07T03:17:29;22.02;;;13.82;;
3274;SDS011;1649;53.672;10.064;2023-02-07T03:20:05;23.33;;;14.32;;
3274;SDS011;1649;53.672;10.064;2023-02-07T03:22:43;23.40;;;13.73;;
3274;SDS011;1649;53.672;10.064;2023-02-07T03:25:10;22.60;;;14.00;;
3274;SDS011;1649;53.672;10.064;2023-02-07T03:27:38;24.83;;;14.95;;
3274;SDS011;1649;53.672;10.064;2023-02-07T03:30:06;24.65;;;13.07;;
3274;SDS011;1649;53.672;10.064;2023-02-07T03:32:36;25.77;;;13.13;;
3274;SDS011;1649;53.672;10.064;2023-02-07T03:35:25;26.17;;;13.75;;
3274;SDS011;1649;53.672;10.064;2023-02-07T03:37:58;27.75;;;14.95;;
3274;SDS011;1649;53.672;10.064;2023-02-07T03:40:26;24.92;;;14.27;;
3274;SDS011;1649;53.672;10.064;2023-02-07T03:45:39;23.60;;;12.95;;
3274;SDS011;1649;53.672;10.064;2023-02-07T03:48:05;28.05;;;14.88;;
3274;SDS011;1649;53.672;10.064;2023-02-07T03:50:30;25.80;;;13.93;;
3274;SDS011;1649;53.672;10.064;2023-02-07T03:52:56;25.30;;;12.50;;
3274;SDS011;1649;53.672;10.064;2023-02-07T03:55:21;28.20;;;13.90;;
3274;SDS011;1649;53.672;10.064;2023-02-07T03:57:47;27.30;;;15.27;;
3274;SDS011;1649;53.672;10.064;2023-02-07T04:00:13;28.60;;;15.13;;
3274;SDS011;1649;53.672;10.064;2023-02-07T04:02:39;27.45;;;14.55;;
3274;SDS011;1649;53.672;10.064;2023-02-07T04:05:05;22.63;;;13.60;;
3274;SDS011;1649;53.672;10.064;2023-02-07T04:07:31;21.90;;;12.57;;
3274;SDS011;1649;53.672;10.064;2023-02-07T04:09:56;24.37;;;13.93;;
3274;SDS011;1649;53.672;10.064;2023-02-07T04:12:22;28.80;;;15.60;;
3274;SDS011;1649;53.672;10.064;2023-02-07T04:14:47;26.93;;;15.30;;
3274;SDS011;1649;53.672;10.064;2023-02-07T04:17:13;24.23;;;13.93;;
3274;SDS011;1649;53.672;10.064;2023-02-07T04:19:38;24.33;;;13.77;;
3274;SDS011;1649;53.672;10.064;2023-02-07T04:22:04;28.07;;;15.40;;
3274;SDS011;1649;53.672;10.064;2023-02-07T04:24:29;29.23;;;12.60;;
3274;SDS011;1649;53.672;10.064;2023-02-07T04:27:00;24.13;;;13.95;;
3274;SDS011;1649;53.672;10.064;2023-02-07T04:29:25;26.37;;;13.30;;
3274;SDS011;1649;53.672;10.064;2023-02-07T04:31:51;24.20;;;13.50;;
3274;SDS011;1649;53.672;10.064;2023-02-07T04:34:16;24.93;;;13.77;;
3274;SDS011;1649;53.672;10.064;2023-02-07T04:36:42;22.80;;;13.27;;
3274;SDS011;1649;53.672;10.064;2023-02-07T04:39:07;19.63;;;12.60;;
3274;SDS011;1649;53.672;10.064;2023-02-07T04:41:33;26.47;;;15.07;;
3274;SDS011;1649;53.672;10.064;2023-02-07T04:43:58;25.73;;;14.20;;
3274;SDS011;1649;53.672;10.064;2023-02-07T04:46:24;24.97;;;14.63;;
3274;SDS011;1649;53.672;10.064;2023-02-07T04:48:49;26.27;;;14.30;;
3274;SDS011;1649;53.672;10.064;2023-02-07T04:51:15;22.63;;;13.90;;
3274;SDS011;1649;53.672;10.064;2023-02-07T04:53:40;23.23;;;14.07;;
3274;SDS011;1649;53.672;10.064;2023-02-07T04:56:06;24.37;;;14.27;;
3274;SDS011;1649;53.672;10.064;2023-02-07T04:58:32;24.43;;;13.47;;
3274;SDS011;1649;53.672;10.064;2023-02-07T05:00:57;22.50;;;13.50;;
3274;SDS011;1649;53.672;10.064;2023-02-07T05:03:23;22.67;;;12.73;;
3274;SDS011;1649;53.672;10.064;2023-02-07T05:05:51;22.17;;;12.70;;
3274;SDS011;1649;53.672;10.064;2023-02-07T05:08:17;22.50;;;13.25;;
3274;SDS011;1649;53.672;10.064;2023-02-07T05:10:44;23.20;;;13.63;;
3274;SDS011;1649;53.672;10.064;2023-02-07T05:13:10;20.55;;;12.88;;
3274;SDS011;1649;53.672;10.064;2023-02-07T05:15:35;19.70;;;11.87;;
3274;SDS011;1649;53.672;10.064;2023-02-07T05:18:01;24.43;;;12.00;;
3274;SDS011;1649;53.672;10.064;2023-02-07T05:20:27;19.57;;;12.20;;
3274;SDS011;1649;53.672;10.064;2023-02-07T05:22:52;23.60;;;12.60;;
3274;SDS011;1649;53.672;10.064;2023-02-07T05:25:18;22.40;;;12.70;;
3274;SDS011;1649;53.672;10.064;2023-02-07T05:27:43;34.00;;;13.70;;
3274;SDS011;1649;53.672;10.064;2023-02-07T05:30:09;27.67;;;12.83;;
3274;SDS011;1649;53.672;10.064;2023-02-07T05:32:35;23.70;;;14.40;;
3274;SDS011;1649;53.672;10.064;2023-02-07T05:35:19;23.75;;;13.05;;
3274;SDS011;1649;53.672;10.064;2023-02-07T05:37:45;21.53;;;13.13;;
3274;SDS011;1649;53.672;10.064;2023-02-07T05:40:11;24.47;;;12.57;;
3274;SDS011;1649;53.672;10.064;2023-02-07T05:42:37;20.30;;;12.53;;
3274;SDS011;1649;53.672;10.064;2023-02-07T05:45:03;18.43;;;12.23;;
3274;SDS011;1649;53.672;10.064;2023-02-07T05:47:29;22.88;;;12.95;;
3274;SDS011;1649;53.672;10.064;2023-02-07T05:49:54;19.57;;;12.00;;
3274;SDS011;1649;53.672;10.064;2023-02-07T05:52:20;21.10;;;11.70;;
3274;SDS011;1649;53.672;10.064;2023-02-07T05:54:45;20.40;;;11.93;;
3274;SDS011;1649;53.672;10.064;2023-02-07T05:57:11;21.80;;;11.97;;
3274;SDS011;1649;53.672;10.064;2023-02-07T05:59:37;19.73;;;11.40;;
3274;SDS011;1649;53.672;10.064;2023-02-07T06:02:02;20.53;;;12.37;;
3274;SDS011;1649;53.672;10.064;2023-02-07T06:04:28;21.30;;;12.23;;
3274;SDS011;1649;53.672;10.064;2023-02-07T06:06:53;23.93;;;11.30;;
3274;SDS011;1649;53.672;10.064;2023-02-07T06:09:19;20.97;;;12.10;;
3274;SDS011;1649;53.672;10.064;2023-02-07T06:11:45;21.35;;;13.20;;
3274;SDS011;1649;53.672;10.064;2023-02-07T06:14:11;17.50;;;11.20;;
3274;SDS011;1649;53.672;10.064;2023-02-07T06:16:36;22.50;;;12.27;;
3274;SDS011;1649;53.672;10.064;2023-02-07T06:19:02;22.50;;;12.73;;
3274;SDS011;1649;53.672;10.064;2023-02-07T06:21:27;21.90;;;13.83;;
3274;SDS011;1649;53.672;10.064;2023-02-07T06:23:53;20.67;;;11.47;;
3274;SDS011;1649;53.672;10.064;2023-02-07T06:26:18;20.80;;;13.53;;
3274;SDS011;1649;53.672;10.064;2023-02-07T06:28:44;28.03;;;15.43;;
3274;SDS011;1649;53.672;10.064;2023-02-07T06:31:09;23.67;;;14.47;;
3274;SDS011;1649;53.672;10.064;2023-02-07T06:33:35;23.83;;;13.20;;
3274;SDS011;1649;53.672;10.064;2023-02-07T06:36:00;39.50;;;20.73;;
3274;SDS011;1649;53.672;10.064;2023-02-07T06:38:26;48.43;;;22.80;;
3274;SDS011;1649;53.672;10.064;2023-02-07T06:40:52;63.57;;;28.47;;
3274;SDS011;1649;53.672;10.064;2023-02-07T06:43:17;47.50;;;23.70;;
3274;SDS011;1649;53.672;10.064;2023-02-07T06:45:43;41.70;;;21.43;;
3274;SDS011;1649;53.672;10.064;2023-02-07T06:48:08;36.13;;;19.10;;
3274;SDS011;1649;53.672;10.064;2023-02-07T06:50:34;34.30;;;15.93;;
3274;SDS011;1649;53.672;10.064;2023-02-07T06:53:00;34.83;;;18.50;;
3274;SDS011;1649;53.672;10.064;2023-02-07T06:55:34;44.03;;;18.90;;
3274;SDS011;1649;53.672;10.064;2023-02-07T06:58:01;32.95;;;16.70;;
3274;SDS011;1649;53.672;10.064;2023-02-07T07:00:27;39.63;;;17.90;;
3274;SDS011;1649;53.672;10.064;2023-02-07T07:02:52;26.53;;;15.10;;
3274;SDS011;1649;53.672;10.064;2023-02-07T07:05:18;29.03;;;15.33;;
3274;SDS011;1649;53.672;10.064;2023-02-07T07:07:44;25.30;;;13.47;;
3274;SDS011;1649;53.672;10.064;2023-02-07T07:10:09;29.77;;;13.80;;
3274;SDS011;1649;53.672;10.064;2023-02-07T07:12:35;23.00;;;14.03;;
3274;SDS011;1649;53.672;10.064;2023-02-07T07:15:01;24.23;;;13.30;;
3274;SDS011;1649;53.672;10.064;2023-02-07T07:17:26;24.50;;;12.00;;
3274;SDS011;1649;53.672;10.064;2023-02-07T07:19:52;25.57;;;14.37;;
3274;SDS011;1649;53.672;10.064;2023-02-07T07:22:17;32.43;;;14.87;;
3274;SDS011;1649;53.672;10.064;2023-02-07T07:24:44;26.77;;;15.65;;
3274;SDS011;1649;53.672;10.064;2023-02-07T07:27:10;29.97;;;14.63;;
3274;SDS011;1649;53.672;10.064;2023-02-07T07:29:35;31.40;;;14.40;;
3274;SDS011;1649;53.672;10.064;2023-02-07T07:32:01;26.30;;;13.90;;
3274;SDS011;1649;53.672;10.064;2023-02-07T07:34:27;25.80;;;14.30;;
3274;SDS011;1649;53.672;10.064;2023-02-07T07:36:52;25.93;;;14.17;;
3274;SDS011;1649;53.672;10.064;2023-02-07T07:39:20;21.77;;;14.63;;
3274;SDS011;1649;53.672;10.064;2023-02-07T07:41:49;26.80;;;14.00;;
3274;SDS011;1649;53.672;10.064;2023-02-07T07:44:15;22.90;;;12.30;;
3274;SDS011;1649;53.672;10.064;2023-02-07T07:46:40;26.60;;;15.40;;
3274;SDS011;1649;53.672;10.064;2023-02-07T07:49:06;25.80;;;13.97;;
3274;SDS011;1649;53.672;10.064;2023-02-07T07:51:32;22.27;;;14.40;;
3274;SDS011;1649;53.672;10.064;2023-02-07T07:53:57;24.87;;;14.60;;
3274;SDS011;1649;53.672;10.064;2023-02-07T07:56:23;23.27;;;13.40;;
3274;SDS011;1649;53.672;10.064;2023-02-07T07:58:48;24.60;;;13.67;;
3274;SDS011;1649;53.672;10.064;2023-02-07T08:01:14;24.97;;;13.27;;
3274;SDS011;1649;53.672;10.064;2023-02-07T08:03:39;24.27;;;15.07;;
3274;SDS011;1649;53.672;10.064;2023-02-07T08:06:05;26.50;;;14.67;;
3274;SDS011;1649;53.672;10.064;2023-02-07T08:08:31;26.88;;;15.40;;
3274;SDS011;1649;53.672;10.064;2023-02-07T08:11:04;31.97;;;17.90;;
3274;SDS011;1649;53.672;10.064;2023-02-07T08:13:31;31.25;;;16.08;;
3274;SDS011;1649;53.672;10.064;2023-02-07T08:15:57;31.00;;;16.80;;
3274;SDS011;1649;53.672;10.064;2023-02-07T08:18:23;31.70;;;18.07;;
3274;SDS011;1649;53.672;10.064;2023-02-07T08:20:48;28.93;;;16.03;;
3274;SDS011;1649;53.672;10.064;2023-02-07T08:23:14;27.00;;;15.77;;
3274;SDS011;1649;53.672;10.064;2023-02-07T08:25:40;29.10;;;17.63;;
3274;SDS011;1649;53.672;10.064;2023-02-07T08:28:05;30.60;;;18.07;;
3274;SDS011;1649;53.672;10.064;2023-02-07T08:30:31;29.13;;;17.27;;
3274;SDS011;1649;53.672;10.064;2023-02-07T08:32:57;33.80;;;18.07;;
3274;SDS011;1649;53.672;10.064;2023-02-07T08:35:22;29.97;;;16.83;;
3274;SDS011;1649;53.672;10.064;2023-02-07T08:37:48;29.70;;;17.07;;
3274;SDS011;1649;53.672;10.064;2023-02-07T08:40:14;31.33;;;17.48;;
3274;SDS011;1649;53.672;10.064;2023-02-07T08:42:40;32.03;;;19.17;;
3274;SDS011;1649;53.672;10.064;2023-02-07T08:45:06;29.70;;;18.03;;
3274;SDS011;1649;53.672;10.064;2023-02-07T08:47:32;31.63;;;16.47;;
3274;SDS011;1649;53.672;10.064;2023-02-07T08:49:57;31.60;;;17.93;;
3274;SDS011;1649;53.672;10.064;2023-02-07T08:52:23;33.23;;;18.70;;
3274;SDS011;1649;53.672;10.064;2023-02-07T08:54:48;31.70;;;19.37;;
3274;SDS011;1649;53.672;10.064;2023-02-07T08:57:14;32.20;;;20.27;;
3274;SDS011;1649;53.672;10.064;2023-02-07T08:59:40;30.17;;;19.40;;
3274;SDS011;1649;53.672;10.064;2023-02-07T09:02:05;30.33;;;18.30;;
3274;SDS011;1649;53.672;10.064;2023-02-07T09:04:31;29.23;;;17.50;;
3274;SDS011;1649;53.672;10.064;2023-02-07T09:06:56;29.10;;;17.80;;
3274;SDS011;1649;53.672;10.064;2023-02-07T09:09:22;27.03;;;17.70;;
3274;SDS011;1649;53.672;10.064;2023-02-07T09:11:49;25.63;;;17.07;;
3274;SDS011;1649;53.672;10.064;2023-02-07T09:14:14;27.10;;;17.27;;
3274;SDS011;1649;53.672;10.064;2023-02-07T09:16:41;27.20;;;17.70;;
3274;SDS011;1649;53.672;10.064;2023-02-07T09:19:07;26.93;;;17.90;;
3274;SDS011;1649;53.672;10.064;2023-02-07T09:21:32;26.10;;;16.47;;
3274;SDS011;1649;53.672;10.064;2023-02-07T09:23:58;24.60;;;16.50;;
3274;SDS011;1649;53.672;10.064;2023-02-07T09:26:23;27.17;;;16.97;;
3274;SDS011;1649;53.672;10.064;2023-02-07T09:28:50;25.40;;;18.10;;
3274;SDS011;1649;53.672;10.064;2023-02-07T09:31:16;24.40;;;17.10;;
3274;SDS011;1649;53.672;10.064;2023-02-07T09:33:42;27.67;;;15.57;;
3274;SDS011;1649;53.672;10.064;2023-02-07T09:36:21;25.00;;;17.50;;
3274;SDS011;1649;53.672;10.064;2023-02-07T09:38:48;27.47;;;18.13;;
3274;SDS011;1649;53.672;10.064;2023-02-07T09:41:25;27.30;;;16.90;;
3274;SDS011;1649;53.672;10.064;2023-02-07T09:44:15;28.50;;;17.63;;
3274;SDS011;1649;53.672;10.064;2023-02-07T09:46:53;28.63;;;17.13;;
3274;SDS011;1649;53.672;10.064;2023-02-07T09:49:26;27.17;;;18.47;;
3274;SDS011;1649;53.672;10.064;2023-02-07T09:51:53;28.23;;;18.30;;
3274;SDS011;1649;53.672;10.064;2023-02-07T09:54:25;27.00;;;16.77;;
3274;SDS011;1649;53.672;10.064;2023-02-07T09:57:02;27.97;;;18.97;;
3274;SDS011;1649;53.672;10.064;2023-02-07T09:59:40;25.60;;;16.80;;
3274;SDS011;1649;53.672;10.064;2023-02-07T10:04:57;25.43;;;17.10;;
3274;SDS011;1649;53.672;10.064;2023-02-07T10:07:27;27.73;;;16.63;;
3274;SDS011;1649;53.672;10.064;2023-02-07T10:09:53;27.50;;;17.60;;
3274;SDS011;1649;53.672;10.064;2023-02-07T10:15:03;28.20;;;18.50;;
3274;SDS011;1649;53.672;10.064;2023-02-07T10:20:25;27.40;;;17.10;;
3274;SDS011;1649;53.672;10.064;2023-02-07T10:25:36;27.07;;;15.70;;
3274;SDS011;1649;53.672;10.064;2023-02-07T10:31:12;27.33;;;16.73;;
3274;SDS011;1649;53.672;10.064;2023-02-07T10:34:27;24.77;;;15.63;;
3274;SDS011;1649;53.672;10.064;2023-02-07T10:36:36;27.87;;;16.10;;
3274;SDS011;1649;53.672;10.064;2023-02-07T10:39:06;28.33;;;16.87;;
3274;SDS011;1649;53.672;10.064;2023-02-07T10:41:45;24.53;;;15.67;;
3274;SDS011;1649;53.672;10.064;2023-02-07T10:44:11;27.50;;;17.03;;
3274;SDS011;1649;53.672;10.064;2023-02-07T10:46:41;30.00;;;18.10;;
3274;SDS011;1649;53.672;10.064;2023-02-07T10:49:22;27.23;;;16.73;;
3274;SDS011;1649;53.672;10.064;2023-02-07T10:51:51;27.27;;;16.33;;
3274;SDS011;1649;53.672;10.064;2023-02-07T10:54:30;26.60;;;15.07;;
3274;SDS011;1649;53.672;10.064;2023-02-07T10:57:17;29.30;;;16.50;;
3274;SDS011;1649;53.672;10.064;2023-02-07T10:59:44;26.00;;;15.47;;
3274;SDS011;1649;53.672;10.064;2023-02-07T11:05:05;37.13;;;18.00;;
3274;SDS011;1649;53.672;10.064;2023-02-07T11:08:05;28.47;;;16.23;;
3274;SDS011;1649;53.672;10.064;2023-02-07T11:10:42;28.80;;;15.57;;
3274;SDS011;1649;53.672;10.064;2023-02-07T11:13:19;28.57;;;15.50;;
3274;SDS011;1649;53.672;10.064;2023-02-07T11:15:57;27.07;;;17.00;;
3274;SDS011;1649;53.672;10.064;2023-02-07T11:27:25;33.93;;;18.20;;
3274;SDS011;1649;53.672;10.064;2023-02-07T11:29:36;34.10;;;16.87;;
3274;SDS011;1649;53.672;10.064;2023-02-07T11:32:11;26.20;;;17.20;;
3274;SDS011;1649;53.672;10.064;2023-02-07T11:34:46;28.97;;;17.00;;
3274;SDS011;1649;53.672;10.064;2023-02-07T11:39:40;31.80;;;18.43;;
3274;SDS011;1649;53.672;10.064;2023-02-07T11:42:10;29.50;;;17.40;;
3274;SDS011;1649;53.672;10.064;2023-02-07T11:44:42;28.10;;;15.67;;
3274;SDS011;1649;53.672;10.064;2023-02-07T11:47:08;31.90;;;17.60;;
3274;SDS011;1649;53.672;10.064;2023-02-07T11:49:44;30.37;;;18.47;;
3274;SDS011;1649;53.672;10.064;2023-02-07T11:52:16;31.20;;;17.27;;
3274;SDS011;1649;53.672;10.064;2023-02-07T11:54:46;29.50;;;15.93;;
3274;SDS011;1649;53.672;10.064;2023-02-07T11:57:15;30.60;;;17.43;;
3274;SDS011;1649;53.672;10.064;2023-02-07T11:59:44;33.40;;;16.80;;
3274;SDS011;1649;53.672;10.064;2023-02-07T12:02:21;26.80;;;15.40;;
3274;SDS011;1649;53.672;10.064;2023-02-07T12:04:49;34.13;;;17.60;;
3274;SDS011;1649;53.672;10.064;2023-02-07T12:07:20;32.33;;;17.33;;
3274;SDS011;1649;53.672;10.064;2023-02-07T12:09:51;36.60;;;17.87;;
3274;SDS011;1649;53.672;10.064;2023-02-07T12:14:54;23.60;;;13.37;;
3274;SDS011;1649;53.672;10.064;2023-02-07T12:17:38;28.47;;;15.27;;
3274;SDS011;1649;53.672;10.064;2023-02-07T12:20:22;26.07;;;16.53;;
3274;SDS011;1649;53.672;10.064;2023-02-07T12:26:00;19.90;;;10.87;;
3274;SDS011;1649;53.672;10.064;2023-02-07T12:28:41;23.53;;;14.03;;
3274;SDS011;1649;53.672;10.064;2023-02-07T12:31:48;29.07;;;14.27;;
3274;SDS011;1649;53.672;10.064;2023-02-07T12:34:13;20.70;;;10.20;;
3274;SDS011;1649;53.672;10.064;2023-02-07T12:36:56;30.20;;;16.67;;
3274;SDS011;1649;53.672;10.064;2023-02-07T12:39:38;29.53;;;16.00;;
3274;SDS011;1649;53.672;10.064;2023-02-07T12:44:51;23.80;;;13.10;;
3274;SDS011;1649;53.672;10.064;2023-02-07T12:47:34;29.30;;;17.03;;
3274;SDS011;1649;53.672;10.064;2023-02-07T12:53:12;23.47;;;11.10;;
3274;SDS011;1649;53.672;10.064;2023-02-07T12:58:27;26.13;;;15.53;;
3274;SDS011;1649;53.672;10.064;2023-02-07T13:01:01;27.70;;;15.50;;
3274;SDS011;1649;53.672;10.064;2023-02-07T13:07:01;28.70;;;14.97;;
3274;SDS011;1649;53.672;10.064;2023-02-07T13:12:23;18.23;;;10.83;;
3274;SDS011;1649;53.672;10.064;2023-02-07T13:14:59;26.37;;;15.43;;
3274;SDS011;1649;53.672;10.064;2023-02-07T13:17:44;27.60;;;14.40;;
3274;SDS011;1649;53.672;10.064;2023-02-07T13:20:27;27.00;;;12.80;;
3274;SDS011;1649;53.672;10.064;2023-02-07T13:23:18;26.60;;;13.73;;
3274;SDS011;1649;53.672;10.064;2023-02-07T13:25:47;20.53;;;12.03;;
3274;SDS011;1649;53.672;10.064;2023-02-07T13:30:45;19.60;;;10.07;;
3274;SDS011;1649;53.672;10.064;2023-02-07T13:35:51;20.70;;;12.67;;
3274;SDS011;1649;53.672;10.064;2023-02-07T13:38:25;21.03;;;11.80;;
3274;SDS011;1649;53.672;10.064;2023-02-07T13:41:09;23.47;;;13.33;;
3274;SDS011;1649;53.672;10.064;2023-02-07T13:46:50;24.60;;;12.77;;
3274;SDS011;1649;53.672;10.064;2023-02-07T13:49:28;22.30;;;12.20;;
3274;SDS011;1649;53.672;10.064;2023-02-07T13:52:32;22.87;;;12.73;;
3274;SDS011;1649;53.672;10.064;2023-02-07T13:58:03;24.80;;;13.60;;
3274;SDS011;1649;53.672;10.064;2023-02-07T14:01:08;23.07;;;11.50;;
3274;SDS011;1649;53.672;10.064;2023-02-07T14:06:28;23.97;;;13.93;;
3274;SDS011;1649;53.672;10.064;2023-02-07T14:09:10;24.60;;;13.13;;
3274;SDS011;1649;53.672;10.064;2023-02-07T14:12:01;18.87;;;12.10;;
3274;SDS011;1649;53.672;10.064;2023-02-07T14:14:38;23.70;;;13.50;;
3274;SDS011;1649;53.672;10.064;2023-02-07T14:17:05;23.10;;;12.73;;
3274;SDS011;1649;53.672;10.064;2023-02-07T14:22:21;24.83;;;14.60;;
3274;SDS011;1649;53.672;10.064;2023-02-07T14:27:32;24.47;;;13.40;;
3274;SDS011;1649;53.672;10.064;2023-02-07T14:32:29;26.00;;;15.47;;
3274;SDS011;1649;53.672;10.064;2023-02-07T14:40:19;27.63;;;15.80;;
3274;SDS011;1649;53.672;10.064;2023-02-07T14:42:57;28.50;;;16.17;;
3274;SDS011;1649;53.672;10.064;2023-02-07T14:45:29;27.90;;;16.23;;
3274;SDS011;1649;53.672;10.064;2023-02-07T14:47:57;26.47;;;14.80;;
3274;SDS011;1649;53.672;10.064;2023-02-07T14:50:24;30.30;;;15.43;;
3274;SDS011;1649;53.672;10.064;2023-02-07T14:52:55;24.50;;;14.70;;
3274;SDS011;1649;53.672;10.064;2023-02-07T14:55:39;23.57;;;14.57;;
3274;SDS011;1649;53.672;10.064;2023-02-07T14:58:13;30.03;;;16.53;;
3274;SDS011;1649;53.672;10.064;2023-02-07T15:00:56;26.53;;;15.00;;
3274;SDS011;1649;53.672;10.064;2023-02-07T15:03:29;30.63;;;17.70;;
3274;SDS011;1649;53.672;10.064;2023-02-07T15:05:59;30.20;;;17.27;;
3274;SDS011;1649;53.672;10.064;2023-02-07T15:08:27;25.80;;;14.47;;
3274;SDS011;1649;53.672;10.064;2023-02-07T15:10:55;26.27;;;15.53;;
3274;SDS011;1649;53.672;10.064;2023-02-07T15:15:53;32.03;;;17.17;;
3274;SDS011;1649;53.672;10.064;2023-02-07T15:18:31;24.67;;;14.17;;
3274;SDS011;1649;53.672;10.064;2023-02-07T15:21:00;32.50;;;16.57;;
3274;SDS011;1649;53.672;10.064;2023-02-07T15:23:27;33.47;;;15.80;;
3274;SDS011;1649;53.672;10.064;2023-02-07T15:25:54;30.17;;;16.43;;
3274;SDS011;1649;53.672;10.064;2023-02-07T15:28:27;30.97;;;16.90;;
3274;SDS011;1649;53.672;10.064;2023-02-07T15:33:48;34.27;;;18.83;;
3274;SDS011;1649;53.672;10.064;2023-02-07T15:36:27;37.00;;;19.27;;
3274;SDS011;1649;53.672;10.064;2023-02-07T15:38:55;33.03;;;18.80;;
3274;SDS011;1649;53.672;10.064;2023-02-07T15:41:22;31.53;;;18.33;;
3274;SDS011;1649;53.672;10.064;2023-02-07T15:43:52;34.43;;;19.47;;
3274;SDS011;1649;53.672;10.064;2023-02-07T15:46:21;33.03;;;18.87;;
3274;SDS011;1649;53.672;10.064;2023-02-07T15:48:48;41.83;;;21.00;;
3274;SDS011;1649;53.672;10.064;2023-02-07T15:51:16;35.70;;;20.40;;
3274;SDS011;1649;53.672;10.064;2023-02-07T15:53:46;38.50;;;20.50;;
3274;SDS011;1649;53.672;10.064;2023-02-07T15:56:16;33.37;;;18.20;;
3274;SDS011;1649;53.672;10.064;2023-02-07T15:58:43;36.60;;;19.87;;
3274;SDS011;1649;53.672;10.064;2023-02-07T16:01:19;36.17;;;19.07;;
3274;SDS011;1649;53.672;10.064;2023-02-07T16:03:48;34.40;;;19.17;;
3274;SDS011;1649;53.672;10.064;2023-02-07T16:08:42;37.83;;;20.07;;
3274;SDS011;1649;53.672;10.064;2023-02-07T16:16:35;42.17;;;22.13;;
3274;SDS011;1649;53.672;10.064;2023-02-07T16:21:32;39.33;;;23.63;;
3274;SDS011;1649;53.672;10.064;2023-02-07T16:26:56;39.70;;;23.20;;
3274;SDS011;1649;53.672;10.064;2023-02-07T16:29:24;38.70;;;23.30;;
3274;SDS011;1649;53.672;10.064;2023-02-07T16:31:50;45.70;;;24.27;;
3274;SDS011;1649;53.672;10.064;2023-02-07T16:34:17;44.83;;;20.47;;
3274;SDS011;1649;53.672;10.064;2023-02-07T16:36:46;37.13;;;22.50;;
3274;SDS011;1649;53.672;10.064;2023-02-07T16:39:13;41.73;;;21.30;;
3274;SDS011;1649;53.672;10.064;2023-02-07T16:41:39;36.40;;;19.50;;
3274;SDS011;1649;53.672;10.064;2023-02-07T16:44:10;40.03;;;20.30;;
3274;SDS011;1649;53.672;10.064;2023-02-07T16:46:45;36.73;;;18.87;;
3274;SDS011;1649;53.672;10.064;2023-02-07T16:49:16;33.27;;;17.40;;
3274;SDS011;1649;53.672;10.064;2023-02-07T16:51:44;38.13;;;19.27;;
3274;SDS011;1649;53.672;10.064;2023-02-07T16:54:10;37.97;;;18.50;;
3274;SDS011;1649;53.672;10.064;2023-02-07T16:56:36;34.00;;;17.70;;